Time;durP1;ratioP1;P1;durP2;ratioP2;P2;SDS_P1;SDS_P2;PMS_P1;PMS_P2;Temp;Humidity;BMP_temperature;BMP_pressure;BME280_temperature;BME280_humidity;BME280_pressure;Samples;Min_cycle;Max_cycle;Signal;HPM_P1;HPM_P2
2023/06/20 00:00:47;;;;;;;;;;;;;;;16.47;100.00;99663.41;5011636;28;791;-56
2023/06/20 00:03:15;;;;;;;;;;;;;;;16.52;100.00;99666.44;5011573;28;913;-56
2023/06/20 00:05:42;;;;;;;;;;;;;;;16.54;100.00;99666.78;5011617;28;827;-56
2023/06/20 00:08:10;;;;;;;;;;;;;;;16.52;100.00;99671.25;5011390;28;1894;-56
2023/06/20 00:10:36;;;;;;;;;;;;;;;16.47;100.00;99660.63;5011691;28;1011;-56
2023/06/20 00:13:04;;;;;;;;;;;;;;;16.28;100.00;99660.41;5011309;28;1348;-56
2023/06/20 00:15:31;;;;;;;;;;;;;;;16.10;100.00;99657.38;5011457;28;850;-56
2023/06/20 00:18:00;;;;;;;;;;;;;;;15.93;100.00;99663.03;5011471;28;857;-56
2023/06/20 00:20:27;;;;;;;;;;;;;;;15.77;100.00;99663.09;5011351;28;938;-56
2023/06/20 00:22:54;;;;;;;;;;;;;;;15.68;100.00;99665.72;5011259;28;877;-57
2023/06/20 00:25:21;;;;;;;;;;;;;;;15.75;100.00;99664.78;5011394;28;795;-56
2023/06/20 00:27:47;;;;;;;;;;;;;;;15.88;100.00;99663.56;5011183;28;866;-56
2023/06/20 00:30:14;;;;;;;;;;;;;;;15.95;100.00;99668.16;5011589;28;1910;-56
2023/06/20 00:32:41;;;;;;;;;;;;;;;15.95;100.00;99662.59;5011154;28;804;-56
2023/06/20 00:35:08;;;;;;;;;;;;;;;15.91;100.00;99667.47;5011185;28;851;-57
2023/06/20 00:37:38;;;;;;;;;;;;;;;15.85;100.00;99658.09;5011259;28;787;-57
2023/06/20 00:40:07;;;;;;;;;;;;;;;15.79;100.00;99665.44;5009938;28;1296;-56
2023/06/20 00:42:34;;;;;;;;;;;;;;;15.75;100.00;99662.00;5011209;28;807;-57
2023/06/20 00:45:01;;;;;;;;;;;;;;;15.70;100.00;99657.69;5011236;28;843;-57
2023/06/20 00:47:28;;;;;;;;;;;;;;;15.65;100.00;99667.38;5011122;28;862;-56
2023/06/20 00:49:56;;;;;;;;;;;;;;;15.62;100.00;99659.91;5011098;28;1886;-56
2023/06/20 00:52:23;;;;;;;;;;;;;;;15.57;100.00;99663.22;5011084;28;866;-56
2023/06/20 00:54:50;;;;;;;;;;;;;;;15.49;100.00;99662.66;5012883;28;815;-56
2023/06/20 00:57:17;;;;;;;;;;;;;;;15.43;100.00;99660.84;5014521;28;799;-56
2023/06/20 00:59:48;;;;;;;;;;;;;;;15.38;100.00;99655.78;5014518;28;846;-56
2023/06/20 01:02:15;;;;;;;;;;;;;;;15.27;100.00;99658.88;5014720;28;890;-56
2023/06/20 01:04:44;;;;;;;;;;;;;;;15.18;100.00;99662.28;5014678;28;858;-56
2023/06/20 01:07:10;;;;;;;;;;;;;;;15.11;100.00;99651.34;5014668;28;849;-56
2023/06/20 01:09:58;;;;;;;;;;;;;;;15.07;100.00;99653.44;5014491;28;1890;-56
2023/06/20 01:12:35;;;;;;;;;;;;;;;15.09;100.00;99651.75;4983620;28;1335;-56
2023/06/20 01:15:09;;;;;;;;;;;;;;;15.13;100.00;99653.66;4994648;28;830;-56
2023/06/20 01:17:40;;;;;;;;;;;;;;;15.15;100.00;99649.25;4994709;28;823;-56
2023/06/20 01:20:09;;;;;;;;;;;;;;;15.20;100.00;99653.50;4994716;28;835;-56
2023/06/20 01:22:41;;;;;;;;;;;;;;;15.19;100.00;99652.72;4994617;28;854;-56
2023/06/20 01:25:10;;;;;;;;;;;;;;;15.17;100.00;99654.34;4986604;28;822;-56
2023/06/20 01:27:40;;;;;;;;;;;;;;;15.18;100.00;99653.16;4977091;28;874;-56
2023/06/20 01:30:10;;;;;;;;;;;;;;;15.20;100.00;99654.28;4994629;28;1922;-56
2023/06/20 01:32:44;;;;;;;;;;;;;;;15.22;100.00;99649.03;4994373;28;824;-56
2023/06/20 01:35:15;;;;;;;;;;;;;;;15.23;100.00;99647.03;4994386;28;874;-56
2023/06/20 01:37:43;;;;;;;;;;;;;;;15.27;100.00;99650.50;4994289;28;847;-56
2023/06/20 01:40:11;;;;;;;;;;;;;;;15.28;100.00;99655.66;4976757;28;1296;-56
2023/06/20 01:42:38;;;;;;;;;;;;;;;15.29;100.00;99657.19;4994219;28;814;-56
2023/06/20 01:45:05;;;;;;;;;;;;;;;15.29;100.00;99653.63;4976585;28;1307;-56
2023/06/20 01:47:35;;;;;;;;;;;;;;;15.27;100.00;99651.28;4994076;28;819;-56
2023/06/20 01:50:03;;;;;;;;;;;;;;;15.25;100.00;99650.16;4994060;28;1968;-56
2023/06/20 01:52:30;;;;;;;;;;;;;;;15.25;100.00;99656.50;4993950;28;861;-56
2023/06/20 01:54:58;;;;;;;;;;;;;;;15.24;100.00;99659.75;4993906;28;792;-56
2023/06/20 01:57:26;;;;;;;;;;;;;;;15.20;100.00;99659.06;4994227;28;873;-56
2023/06/20 01:59:54;;;;;;;;;;;;;;;15.14;100.00;99660.81;4993824;28;855;-56
2023/06/20 02:02:21;;;;;;;;;;;;;;;15.14;100.00;99660.81;4993804;28;799;-56
2023/06/20 02:04:49;;;;;;;;;;;;;;;15.12;100.00;99658.44;4993410;28;862;-56
2023/06/20 02:07:16;;;;;;;;;;;;;;;15.14;100.00;99656.00;4993767;28;851;-56
2023/06/20 02:09:45;;;;;;;;;;;;;;;15.16;100.00;99664.72;4993488;28;1953;-56
2023/06/20 02:12:12;;;;;;;;;;;;;;;15.21;100.00;99655.84;4987950;28;1370;-56
2023/06/20 02:14:39;;;;;;;;;;;;;;;15.30;100.00;99655.22;5013157;28;827;-57
2023/06/20 02:17:07;;;;;;;;;;;;;;;15.27;100.00;99654.06;5013102;28;819;-56
2023/06/20 02:19:33;;;;;;;;;;;;;;;15.23;100.00;99658.19;5013001;28;819;-56
2023/06/20 02:22:01;;;;;;;;;;;;;;;15.16;100.00;99653.56;5013038;28;881;-56
2023/06/20 02:24:31;;;;;;;;;;;;;;;15.14;100.00;99655.25;5012857;28;914;-56
2023/06/20 02:27:00;;;;;;;;;;;;;;;15.12;100.00;99658.44;5013102;28;878;-56
2023/06/20 02:29:29;;;;;;;;;;;;;;;15.06;100.00;99661.00;5012758;28;1985;-56
2023/06/20 02:31:58;;;;;;;;;;;;;;;15.02;100.00;99662.28;5012827;28;849;-56
2023/06/20 02:34:26;;;;;;;;;;;;;;;14.99;100.00;99669.50;5012825;28;870;-56
2023/06/20 02:36:55;;;;;;;;;;;;;;;14.97;100.00;99671.94;5012772;28;858;-56
2023/06/20 02:39:23;;;;;;;;;;;;;;;14.96;100.00;99673.19;5012682;28;819;-56
2023/06/20 02:41:50;;;;;;;;;;;;;;;15.00;100.00;99673.88;5012682;28;811;-56
2023/06/20 02:44:17;;;;;;;;;;;;;;;15.03;100.00;99669.44;5012795;28;862;-56
2023/06/20 02:46:59;;;;;;;;;;;;;;;15.03;100.00;99670.22;5012652;28;834;-56
2023/06/20 02:49:26;;;;;;;;;;;;;;;15.04;100.00;99676.56;4994881;28;2037;-56
2023/06/20 02:51:59;;;;;;;;;;;;;;;15.03;100.00;99667.44;5012505;28;819;-56
2023/06/20 02:54:49;;;;;;;;;;;;;;;15.04;100.00;99673.75;5012328;28;819;-56
2023/06/20 02:57:18;;;;;;;;;;;;;;;15.07;100.00;99682.03;5006997;28;1255;-56
2023/06/20 02:59:46;;;;;;;;;;;;;;;15.16;100.00;99684.19;5012366;28;814;-57
2023/06/20 03:02:16;;;;;;;;;;;;;;;15.20;100.00;99681.34;5012183;28;825;-56
2023/06/20 03:04:44;;;;;;;;;;;;;;;15.23;100.00;99691.59;5012263;28;854;-57
2023/06/20 03:07:11;;;;;;;;;;;;;;;15.25;100.00;99680.78;5012552;28;807;-56
2023/06/20 03:09:37;;;;;;;;;;;;;;;15.28;100.00;99683.50;5012321;28;1953;-56
2023/06/20 03:12:05;;;;;;;;;;;;;;;15.31;100.00;99684.63;5012108;28;1334;-56
2023/06/20 03:14:32;;;;;;;;;;;;;;;15.38;100.00;99684.41;5012477;28;772;-57
2023/06/20 03:16:59;;;;;;;;;;;;;;;15.53;100.00;99687.59;5011516;28;831;-56
2023/06/20 03:19:26;;;;;;;;;;;;;;;15.67;100.00;99681.66;5011113;28;1315;-56
2023/06/20 03:21:53;;;;;;;;;;;;;;;15.84;100.00;99676.06;5012362;28;834;-56
2023/06/20 03:24:21;;;;;;;;;;;;;;;15.97;100.00;99684.44;5012062;28;799;-56
2023/06/20 03:26:49;;;;;;;;;;;;;;;16.04;100.00;99679.44;5012469;28;873;-56
2023/06/20 03:29:15;;;;;;;;;;;;;;;16.12;100.00;99685.59;5011936;28;1910;-56
2023/06/20 03:31:42;;;;;;;;;;;;;;;16.21;100.00;99682.16;5012148;28;992;-56
2023/06/20 03:34:09;;;;;;;;;;;;;;;16.24;100.00;99684.06;5012168;28;807;-56
2023/06/20 03:36:38;;;;;;;;;;;;;;;16.29;100.00;99684.28;5012192;28;787;-57
2023/06/20 03:39:04;;;;;;;;;;;;;;;16.40;100.00;99695.09;5011759;28;859;-56
2023/06/20 03:41:31;;;;;;;;;;;;;;;16.49;100.00;99686.88;5012066;28;811;-56
2023/06/20 03:43:58;;;;;;;;;;;;;;;16.56;100.00;99687.84;5011852;28;807;-56
2023/06/20 03:46:25;;;;;;;;;;;;;;;16.63;100.00;99684.84;5011788;28;866;-56
2023/06/20 03:48:52;;;;;;;;;;;;;;;16.64;100.00;99689.19;5011889;28;1894;-56
2023/06/20 03:51:19;;;;;;;;;;;;;;;16.62;100.00;99688.84;5011691;28;807;-56
2023/06/20 03:53:45;;;;;;;;;;;;;;;16.56;100.00;99690.63;5011728;28;851;-57
2023/06/20 03:56:12;;;;;;;;;;;;;;;16.56;100.00;99691.44;5011795;28;859;-56
2023/06/20 03:58:39;;;;;;;;;;;;;;;16.59;100.00;99696.13;5011763;28;861;-56
2023/06/20 04:01:06;;;;;;;;;;;;;;;16.66;100.00;99695.09;5011764;28;827;-56
2023/06/20 04:03:34;;;;;;;;;;;;;;;16.79;100.00;99704.28;5012071;28;906;-56
2023/06/20 04:06:01;;;;;;;;;;;;;;;17.08;100.00;99698.56;5011834;28;858;-56
2023/06/20 04:08:29;;;;;;;;;;;;;;;17.57;100.00;99705.69;5011704;28;1894;-56
2023/06/20 04:10:56;;;;;;;;;;;;;;;17.80;100.00;99712.09;5009944;28;1276;-56
2023/06/20 04:13:23;;;;;;;;;;;;;;;17.93;100.00;99718.41;5011509;28;796;-56
2023/06/20 04:15:50;;;;;;;;;;;;;;;18.12;100.00;99717.31;5011515;28;807;-56
2023/06/20 04:18:16;;;;;;;;;;;;;;;18.38;100.00;99714.34;5011458;28;835;-55
2023/06/20 04:20:43;;;;;;;;;;;;;;;18.60;100.00;99722.69;5011537;28;913;-56
2023/06/20 04:23:10;;;;;;;;;;;;;;;18.84;100.00;99730.56;5011338;28;800;-56
2023/06/20 04:25:37;;;;;;;;;;;;;;;19.11;100.00;99724.28;5011352;28;881;-56
2023/06/20 04:28:04;;;;;;;;;;;;;;;19.40;100.00;99729.47;5012151;28;870;-56
2023/06/20 04:30:31;;;;;;;;;;;;;;;19.65;100.00;99716.41;5015328;28;831;-56
2023/06/20 04:32:58;;;;;;;;;;;;;;;19.92;100.00;99729.69;5015194;28;815;-55
2023/06/20 04:35:25;;;;;;;;;;;;;;;20.21;100.00;99728.41;5015204;28;852;-55
2023/06/20 04:37:52;;;;;;;;;;;;;;;20.43;100.00;99731.00;5015201;28;788;-55
2023/06/20 04:40:19;;;;;;;;;;;;;;;20.62;100.00;99740.16;5015125;28;854;-55
2023/06/20 04:42:45;;;;;;;;;;;;;;;20.73;100.00;99735.56;5015114;28;890;-54
2023/06/20 04:45:12;;;;;;;;;;;;;;;20.90;100.00;99738.00;5015020;28;898;-54
2023/06/20 04:47:41;;;;;;;;;;;;;;;21.17;100.00;99735.06;5014970;28;843;-55
2023/06/20 04:50:09;;;;;;;;;;;;;;;21.51;100.00;99735.03;5014600;28;1889;-56
2023/06/20 04:52:36;;;;;;;;;;;;;;;21.80;100.00;99742.75;5014912;28;869;-55
2023/06/20 04:55:04;;;;;;;;;;;;;;;22.02;100.00;99743.19;5014650;28;815;-55
2023/06/20 04:57:31;;;;;;;;;;;;;;;22.25;100.00;99746.44;5014666;28;870;-55
2023/06/20 04:59:58;;;;;;;;;;;;;;;22.48;100.00;99750.41;5014506;28;853;-55
2023/06/20 05:02:26;;;;;;;;;;;;;;;22.68;100.00;99754.56;5014639;28;830;-55
2023/06/20 05:04:53;;;;;;;;;;;;;;;22.67;100.00;99750.97;5014443;28;871;-56
2023/06/20 05:07:21;;;;;;;;;;;;;;;22.51;100.00;99757.91;5014483;28;799;-54
2023/06/20 05:09:49;;;;;;;;;;;;;;;22.50;100.00;99761.19;5014119;28;1910;-55
2023/06/20 05:12:15;;;;;;;;;;;;;;;22.43;100.00;99762.38;5014151;28;1056;-55
2023/06/20 05:14:42;;;;;;;;;;;;;;;22.39;100.00;99762.56;5014478;28;889;-55
2023/06/20 05:17:09;;;;;;;;;;;;;;;22.46;100.00;99767.03;5014086;28;934;-55
2023/06/20 05:19:36;;;;;;;;;;;;;;;22.68;100.00;99758.19;5014243;28;826;-56
2023/06/20 05:22:03;;;;;;;;;;;;;;;22.97;100.00;99765.03;5014302;28;874;-56
2023/06/20 05:24:30;;;;;;;;;;;;;;;23.15;100.00;99764.03;5014174;28;894;-55
2023/06/20 05:26:57;;;;;;;;;;;;;;;23.53;100.00;99771.47;5014050;28;972;-55
2023/06/20 05:29:24;;;;;;;;;;;;;;;23.81;98.04;99769.03;5013976;28;1975;-55
2023/06/20 05:31:50;;;;;;;;;;;;;;;24.05;95.69;99776.47;5014245;28;807;-53
2023/06/20 05:34:16;;;;;;;;;;;;;;;24.45;94.24;99772.78;5013920;28;878;-55
2023/06/20 05:36:43;;;;;;;;;;;;;;;24.93;91.86;99776.25;5014000;28;850;-55
2023/06/20 05:39:10;;;;;;;;;;;;;;;25.41;88.73;99773.50;5013786;28;831;-54
2023/06/20 05:41:36;;;;;;;;;;;;;;;25.72;85.83;99762.56;5013199;28;886;-53
2023/06/20 05:44:04;;;;;;;;;;;;;;;25.82;79.97;99770.34;5013903;28;850;-54
2023/06/20 05:46:30;;;;;;;;;;;;;;;26.02;79.90;99774.28;5013677;28;823;-54
2023/06/20 05:48:59;;;;;;;;;;;;;;;26.21;78.98;99774.56;5013848;28;1952;-54
2023/06/20 05:51:29;;;;;;;;;;;;;;;26.66;76.92;99763.31;5013529;28;910;-55
2023/06/20 05:53:57;;;;;;;;;;;;;;;26.91;75.16;99767.16;5013557;28;897;-54
2023/06/20 05:56:24;;;;;;;;;;;;;;;27.22;73.90;99762.47;5013510;28;815;-55
2023/06/20 05:58:51;;;;;;;;;;;;;;;27.06;72.40;99756.31;5013442;28;885;-55
2023/06/20 06:01:17;;;;;;;;;;;;;;;26.67;73.29;99753.50;5013438;28;776;-55
2023/06/20 06:03:47;;;;;;;;;;;;;;;26.88;73.10;99754.81;5013360;28;803;-55
2023/06/20 06:06:14;;;;;;;;;;;;;;;27.49;70.13;99758.03;5013301;28;898;-54
2023/06/20 06:08:41;;;;;;;;;;;;;;;27.71;68.74;99754.31;5013283;28;1951;-55
2023/06/20 06:11:07;;;;;;;;;;;;;;;28.42;61.94;99747.97;5013131;28;1200;-54
2023/06/20 06:13:34;;;;;;;;;;;;;;;28.90;58.32;99749.38;5013228;28;824;-55
2023/06/20 06:16:01;;;;;;;;;;;;;;;29.20;54.16;99748.56;5013207;28;874;-56
2023/06/20 06:18:30;;;;;;;;;;;;;;;29.28;51.65;99748.75;5012966;28;1006;-55
2023/06/20 06:20:57;;;;;;;;;;;;;;;29.55;49.95;99754.66;5012884;28;819;-56
2023/06/20 06:23:24;;;;;;;;;;;;;;;30.01;48.91;99752.78;5012978;28;819;-54
2023/06/20 06:25:52;;;;;;;;;;;;;;;30.23;47.22;99743.13;5012963;28;788;-56
2023/06/20 06:28:19;;;;;;;;;;;;;;;30.43;46.03;99745.44;5012819;28;1918;-56
2023/06/20 06:30:45;;;;;;;;;;;;;;;30.93;44.59;99749.50;4995632;28;962;-57
2023/06/20 06:33:12;;;;;;;;;;;;;;;30.96;44.48;99749.72;5012818;28;890;-57
2023/06/20 06:35:39;;;;;;;;;;;;;;;30.80;43.91;99754.41;5012725;28;783;-57
2023/06/20 06:38:06;;;;;;;;;;;;;;;31.33;42.63;99743.81;5012781;28;870;-56
2023/06/20 06:40:33;;;;;;;;;;;;;;;31.66;42.48;99741.59;5012643;28;863;-57
2023/06/20 06:43:01;;;;;;;;;;;;;;;32.06;41.24;99741.53;5012703;28;913;-57
2023/06/20 06:45:27;;;;;;;;;;;;;;;32.29;40.19;99753.22;5012664;28;846;-57
2023/06/20 06:47:54;;;;;;;;;;;;;;;32.29;39.24;99746.75;5012731;28;803;-56
2023/06/20 06:50:21;;;;;;;;;;;;;;;32.21;38.92;99749.50;5012345;28;1906;-57
2023/06/20 06:52:47;;;;;;;;;;;;;;;32.13;39.36;99745.78;5011625;28;858;-57
2023/06/20 06:55:14;;;;;;;;;;;;;;;31.81;38.82;99749.59;5012423;28;850;-56
2023/06/20 06:57:41;;;;;;;;;;;;;;;31.76;39.68;99744.78;5012453;28;894;-57
2023/06/20 07:00:11;;;;;;;;;;;;;;;31.81;39.76;99752.44;5012391;28;827;-56
2023/06/20 07:02:38;;;;;;;;;;;;;;;31.74;39.64;99748.19;5012314;28;878;-56
2023/06/20 07:05:05;;;;;;;;;;;;;;;31.95;38.92;99745.38;5012544;28;890;-56
2023/06/20 07:07:31;;;;;;;;;;;;;;;32.31;37.96;99741.22;5012247;28;815;-56
2023/06/20 07:09:58;;;;;;;;;;;;;;;32.57;37.38;99756.75;5012079;28;1943;-56
2023/06/20 07:12:25;;;;;;;;;;;;;;;33.49;36.06;99752.44;5012105;28;1088;-57
2023/06/20 07:14:56;;;;;;;;;;;;;;;34.02;35.23;99751.16;5012064;28;879;-56
2023/06/20 07:17:26;;;;;;;;;;;;;;;32.85;36.29;99756.78;5012109;28;835;-56
2023/06/20 07:19:52;;;;;;;;;;;;;;;32.25;37.55;99758.50;5011965;28;851;-55
2023/06/20 07:22:20;;;;;;;;;;;;;;;31.49;38.87;99752.63;4994692;28;2137;-56
2023/06/20 07:24:47;;;;;;;;;;;;;;;30.76;40.42;99759.66;5012415;28;822;-56
2023/06/20 07:27:14;;;;;;;;;;;;;;;29.93;41.83;99761.94;5012041;28;823;-57
2023/06/20 07:29:41;;;;;;;;;;;;;;;29.31;43.19;99773.28;5012250;28;1969;-55
2023/06/20 07:32:08;;;;;;;;;;;;;;;29.13;43.97;99769.09;5011914;28;829;-56
2023/06/20 07:34:34;;;;;;;;;;;;;;;28.83;44.42;99769.13;5011973;28;909;-56
2023/06/20 07:37:01;;;;;;;;;;;;;;;28.42;45.78;99776.41;5011838;28;870;-56
2023/06/20 07:39:28;;;;;;;;;;;;;;;28.65;46.05;99774.16;5011823;28;823;-56
2023/06/20 07:41:56;;;;;;;;;;;;;;;28.87;45.89;99780.97;5011888;28;807;-56
2023/06/20 07:44:22;;;;;;;;;;;;;;;28.50;46.23;99785.91;4994477;28;1475;-56
2023/06/20 07:46:49;;;;;;;;;;;;;;;28.32;46.97;99771.56;5011652;28;803;-56
2023/06/20 07:49:16;;;;;;;;;;;;;;;28.84;46.60;99779.19;4994308;28;1971;-56
2023/06/20 07:51:43;;;;;;;;;;;;;;;29.27;45.59;99775.66;5011699;28;803;-55
2023/06/20 07:54:11;;;;;;;;;;;;;;;29.83;44.59;99780.72;5011749;28;842;-55
2023/06/20 07:56:37;;;;;;;;;;;;;;;28.82;46.98;99770.41;5012160;28;779;-54
2023/06/20 07:59:04;;;;;;;;;;;;;;;28.69;48.22;99768.94;5011846;28;811;-56
2023/06/20 08:01:31;;;;;;;;;;;;;;;29.62;46.37;99777.59;5011655;28;894;-56
2023/06/20 08:03:58;;;;;;;;;;;;;;;29.99;44.87;99781.81;5013657;28;803;-56
2023/06/20 08:06:24;;;;;;;;;;;;;;;29.49;46.25;99783.19;5015692;28;795;-55
2023/06/20 08:08:51;;;;;;;;;;;;;;;28.75;47.72;99776.69;5015395;28;1933;-56
2023/06/20 08:11:21;;;;;;;;;;;;;;;27.29;51.86;99790.34;5015498;28;1195;-56
2023/06/20 08:13:48;;;;;;;;;;;;;;;26.20;55.99;99784.34;5016065;28;838;-56
2023/06/20 08:16:14;;;;;;;;;;;;;;;24.77;66.13;99788.97;5015630;28;827;-55
2023/06/20 08:18:41;;;;;;;;;;;;;;;23.29;82.55;99805.50;5016012;28;797;-53
2023/06/20 08:21:08;;;;;;;;;;;;;;;21.72;100.00;99811.88;5015684;28;867;-57
2023/06/20 08:23:35;;;;;;;;;;;;;;;20.77;100.00;99825.28;5016007;28;784;-58
2023/06/20 08:26:02;;;;;;;;;;;;;;;19.70;100.00;99836.41;5015352;28;1114;-58
2023/06/20 08:28:29;;;;;;;;;;;;;;;19.06;100.00;99832.13;5015815;28;1914;-58
2023/06/20 08:30:55;;;;;;;;;;;;;;;18.81;100.00;99835.09;5015455;28;881;-57
2023/06/20 08:33:22;;;;;;;;;;;;;;;18.87;100.00;99842.44;5015211;28;815;-58
2023/06/20 08:35:50;;;;;;;;;;;;;;;18.69;100.00;99850.72;5015001;28;882;-57
2023/06/20 08:38:17;;;;;;;;;;;;;;;18.54;100.00;99850.44;5015148;28;819;-57
2023/06/20 08:40:44;;;;;;;;;;;;;;;18.60;100.00;99845.84;5015897;28;842;-58
2023/06/20 08:43:14;;;;;;;;;;;;;;;18.65;100.00;99850.06;5014877;28;830;-58
2023/06/20 08:45:41;;;;;;;;;;;;;;;18.79;100.00;99843.19;5014950;28;816;-58
2023/06/20 08:48:09;;;;;;;;;;;;;;;19.13;100.00;99840.22;5014802;28;878;-57
2023/06/20 08:50:39;;;;;;;;;;;;;;;19.55;100.00;99839.75;5014925;28;1878;-58
2023/06/20 08:53:06;;;;;;;;;;;;;;;20.12;100.00;99830.97;5015004;28;882;-57
2023/06/20 08:55:34;;;;;;;;;;;;;;;20.76;100.00;99832.94;5014721;28;882;-57
2023/06/20 08:58:01;;;;;;;;;;;;;;;21.23;100.00;99827.94;5014666;28;850;-56
2023/06/20 09:00:28;;;;;;;;;;;;;;;21.49;100.00;99821.91;5014573;28;834;-57
2023/06/20 09:02:55;;;;;;;;;;;;;;;21.53;100.00;99816.84;5014579;28;839;-56
2023/06/20 09:05:22;;;;;;;;;;;;;;;21.51;100.00;99822.19;5014473;28;878;-57
2023/06/20 09:07:51;;;;;;;;;;;;;;;21.42;100.00;99814.56;5014508;28;878;-56
2023/06/20 09:10:23;;;;;;;;;;;;;;;21.40;100.00;99812.22;5014387;28;1895;-56
2023/06/20 09:12:54;;;;;;;;;;;;;;;21.33;100.00;99814.59;5014160;28;1436;-57
2023/06/20 09:15:22;;;;;;;;;;;;;;;21.26;100.00;99807.31;5013214;28;939;-57
2023/06/20 09:17:52;;;;;;;;;;;;;;;21.33;100.00;99806.16;5012912;28;1346;-57
2023/06/20 09:20:19;;;;;;;;;;;;;;;21.43;100.00;99804.91;5014631;28;784;-57
2023/06/20 09:22:46;;;;;;;;;;;;;;;21.51;100.00;99808.13;5014695;28;819;-57
2023/06/20 09:25:18;;;;;;;;;;;;;;;21.54;100.00;99798.72;5014380;28;815;-57
2023/06/20 09:27:45;;;;;;;;;;;;;;;21.65;100.00;99801.78;5014072;28;858;-57
2023/06/20 09:30:12;;;;;;;;;;;;;;;21.84;100.00;99794.00;5014020;28;1918;-57
2023/06/20 09:32:41;;;;;;;;;;;;;;;22.02;100.00;99798.72;5013931;28;812;-56
2023/06/20 09:35:08;;;;;;;;;;;;;;;22.34;100.00;99801.88;5013889;28;836;-57
2023/06/20 09:37:42;;;;;;;;;;;;;;;22.66;100.00;99796.53;5013924;28;846;-55
2023/06/20 10:11:11;;;;;;;;;;;;;;;25.14;98.54;99772.03;5293711;23;1520;-63
2023/06/20 10:13:38;;;;;;;;;;;;;;;25.61;97.33;99763.31;5013253;28;842;-62
2023/06/20 10:16:05;;;;;;;;;;;;;;;25.76;93.59;99769.53;5013530;28;811;-62
2023/06/20 10:18:32;;;;;;;;;;;;;;;25.53;91.44;99767.91;5013416;28;856;-63
2023/06/20 10:21:02;;;;;;;;;;;;;;;25.35;88.29;99766.25;5013239;28;830;-63
2023/06/20 10:23:33;;;;;;;;;;;;;;;25.47;88.77;99762.19;5012953;28;925;-63
2023/06/20 10:26:02;;;;;;;;;;;;;;;25.70;83.89;99745.31;5012942;28;874;-64
2023/06/20 10:28:29;;;;;;;;;;;;;;;26.32;81.44;99743.44;5012870;28;1918;-64
2023/06/20 10:31:02;;;;;;;;;;;;;;;26.77;75.02;99749.13;5013016;28;870;-64
2023/06/20 10:33:32;;;;;;;;;;;;;;;26.75;71.77;99745.25;5012943;28;846;-64
2023/06/20 10:36:04;;;;;;;;;;;;;;;26.27;67.16;99753.47;5012656;28;1156;-63
2023/06/20 10:38:32;;;;;;;;;;;;;;;26.10;68.23;99755.50;5012863;28;861;-64
2023/06/20 10:41:13;;;;;;;;;;;;;;;26.33;69.11;99781.03;5012659;28;823;-64
2023/06/20 10:43:52;;;;;;;;;;;;;;;26.23;59.86;99772.00;5013066;28;826;-62
2023/06/20 10:46:21;;;;;;;;;;;;;;;26.21;59.20;99780.25;5012724;28;811;-63
2023/06/20 10:48:48;;;;;;;;;;;;;;;26.48;60.57;99787.25;5012692;28;1977;-65
2023/06/20 10:51:14;;;;;;;;;;;;;;;26.73;63.50;99784.69;5012639;28;901;-63
2023/06/20 10:53:41;;;;;;;;;;;;;;;27.15;63.31;99805.53;5012500;28;869;-63
2023/06/20 10:56:08;;;;;;;;;;;;;;;27.62;64.28;99814.22;4994712;28;1284;-63
2023/06/20 10:58:34;;;;;;;;;;;;;;;27.80;66.14;99807.19;5012504;28;830;-64
2023/06/20 11:01:01;;;;;;;;;;;;;;;28.89;65.22;99810.41;5012330;28;921;-64
2023/06/20 11:03:29;;;;;;;;;;;;;;;30.18;64.47;99800.97;4994758;28;1162;-64
2023/06/20 11:05:56;;;;;;;;;;;;;;;30.44;61.15;99798.28;5012278;28;847;-63
2023/06/20 11:08:27;;;;;;;;;;;;;;;29.75;59.32;99794.03;4994644;28;1957;-65
2023/06/20 11:10:54;;;;;;;;;;;;;;;29.62;58.17;99789.00;5012190;28;1290;-64
2023/06/20 11:13:23;;;;;;;;;;;;;;;29.85;55.92;99783.81;4994443;28;1272;-64
2023/06/20 11:15:49;;;;;;;;;;;;;;;29.71;50.09;99779.34;5013093;28;771;-66
2023/06/20 11:18:16;;;;;;;;;;;;;;;30.44;46.37;99766.91;5012128;28;855;-64
2023/06/20 11:20:43;;;;;;;;;;;;;;;30.65;43.38;99754.91;5012155;28;834;-64
2023/06/20 11:23:12;;;;;;;;;;;;;;;29.62;43.38;99768.28;5012102;28;811;-64
2023/06/20 11:25:39;;;;;;;;;;;;;;;28.48;45.85;99754.38;5012334;28;925;-65
2023/06/20 11:28:10;;;;;;;;;;;;;;;27.62;47.75;99766.72;5012198;28;870;-64
2023/06/20 11:30:39;;;;;;;;;;;;;;;27.13;49.98;99757.06;5012088;28;1910;-65
2023/06/20 11:33:16;;;;;;;;;;;;;;;27.30;50.98;99757.81;5011955;28;835;-65
2023/06/20 11:35:45;;;;;;;;;;;;;;;27.98;50.52;99755.50;5011917;28;874;-63
2023/06/20 11:38:19;;;;;;;;;;;;;;;28.49;48.19;99755.19;5011189;28;846;-65
2023/06/20 11:40:47;;;;;;;;;;;;;;;28.66;47.64;99755.03;5011706;28;863;-63
2023/06/20 11:43:20;;;;;;;;;;;;;;;28.73;48.11;99754.44;5011721;28;847;-64
2023/06/20 11:45:47;;;;;;;;;;;;;;;29.19;47.60;99766.19;5011874;28;922;-64
2023/06/20 11:48:15;;;;;;;;;;;;;;;29.22;47.92;99760.19;5011909;28;874;-63
2023/06/20 11:50:53;;;;;;;;;;;;;;;28.69;49.01;99765.34;5011797;28;1944;-63
2023/06/20 11:53:34;;;;;;;;;;;;;;;27.67;51.55;99763.13;5011769;28;814;-63
2023/06/20 11:56:03;;;;;;;;;;;;;;;26.96;53.75;99765.59;5011790;28;819;-64
2023/06/20 11:58:39;;;;;;;;;;;;;;;26.68;54.57;99764.34;5011666;28;878;-64
2023/06/20 12:01:20;;;;;;;;;;;;;;;26.86;54.98;99756.59;5011706;28;887;-64
2023/06/20 12:04:03;;;;;;;;;;;;;;;27.20;52.17;99762.19;5012067;28;810;-64
2023/06/20 12:06:31;;;;;;;;;;;;;;;27.57;47.72;99766.75;5011663;28;901;-65
2023/06/20 12:08:59;;;;;;;;;;;;;;;28.04;44.55;99764.00;5011326;28;1878;-64
2023/06/20 12:11:27;;;;;;;;;;;;;;;27.34;44.31;99763.25;5011284;28;1287;-64
2023/06/20 12:13:55;;;;;;;;;;;;;;;27.16;44.60;99770.19;5011600;28;854;-64
2023/06/20 12:16:22;;;;;;;;;;;;;;;27.25;44.14;99761.47;5011579;28;903;-64
2023/06/20 12:18:48;;;;;;;;;;;;;;;27.31;45.15;99762.19;5011842;28;853;-63
2023/06/20 12:21:15;;;;;;;;;;;;;;;26.96;45.53;99762.78;5011723;28;806;-64
2023/06/20 12:23:42;;;;;;;;;;;;;;;27.94;44.65;99755.00;5011501;28;853;-63
2023/06/20 12:26:09;;;;;;;;;;;;;;;29.93;41.65;99755.47;5011411;28;965;-63
2023/06/20 12:28:36;;;;;;;;;;;;;;;31.77;37.67;99746.31;5011382;28;1918;-64
2023/06/20 12:31:04;;;;;;;;;;;;;;;33.12;34.85;99748.81;5011256;28;854;-65
2023/06/20 12:33:31;;;;;;;;;;;;;;;33.68;33.68;99751.44;5011458;28;854;-65
2023/06/20 12:35:58;;;;;;;;;;;;;;;32.25;34.91;99749.94;5011390;28;819;-64
2023/06/20 12:38:29;;;;;;;;;;;;;;;31.67;36.79;99745.25;5011121;28;882;-63
2023/06/20 12:40:56;;;;;;;;;;;;;;;33.13;32.96;99747.47;5011506;28;807;-64
2023/06/20 12:43:23;;;;;;;;;;;;;;;34.46;31.11;99741.69;5011238;28;866;-64
2023/06/20 12:45:50;;;;;;;;;;;;;;;35.40;29.34;99730.38;5011340;28;807;-65
2023/06/20 12:48:16;;;;;;;;;;;;;;;36.31;28.67;99734.16;5011328;28;842;-64
2023/06/20 12:50:43;;;;;;;;;;;;;;;36.70;26.76;99725.25;5014433;28;1934;-64
2023/06/20 12:53:10;;;;;;;;;;;;;;;36.37;27.47;99728.19;5014905;28;848;-64
2023/06/20 12:55:37;;;;;;;;;;;;;;;35.76;27.00;99730.06;5014996;28;799;-64
2023/06/20 12:58:04;;;;;;;;;;;;;;;34.28;28.04;99724.28;5014876;28;838;-64
2023/06/20 13:00:32;;;;;;;;;;;;;;;33.59;29.34;99731.88;5014881;28;885;-64
2023/06/20 13:02:59;;;;;;;;;;;;;;;32.98;30.19;99723.69;5014690;28;834;-63
2023/06/20 13:05:26;;;;;;;;;;;;;;;32.07;31.42;99728.00;5014582;28;867;-64
2023/06/20 13:07:53;;;;;;;;;;;;;;;31.56;31.92;99729.13;5014660;28;861;-64
2023/06/20 13:10:21;;;;;;;;;;;;;;;31.58;32.58;99722.84;5014453;28;1977;-64
2023/06/20 13:12:49;;;;;;;;;;;;;;;31.50;32.47;99732.09;5014392;28;810;-64
2023/06/20 13:15:19;;;;;;;;;;;;;;;31.83;32.80;99732.66;5014438;28;823;-64
2023/06/20 13:17:45;;;;;;;;;;;;;;;31.72;33.02;99738.63;5014663;28;827;-63
2023/06/20 13:20:11;;;;;;;;;;;;;;;31.35;34.03;99734.72;5014350;28;795;-64
2023/06/20 13:22:39;;;;;;;;;;;;;;;31.68;33.75;99733.25;5014107;28;894;-63
2023/06/20 13:25:06;;;;;;;;;;;;;;;32.11;32.46;99745.59;5014250;28;902;-64
2023/06/20 13:27:33;;;;;;;;;;;;;;;32.75;32.52;99730.78;5014198;28;807;-65
2023/06/20 13:29:59;;;;;;;;;;;;;;;33.06;31.84;99728.13;5014022;28;1913;-63
2023/06/20 13:32:26;;;;;;;;;;;;;;;33.41;31.19;99734.47;5014089;28;819;-63
2023/06/20 13:34:53;;;;;;;;;;;;;;;33.67;31.14;99735.56;5014051;28;846;-65